createdAt,value
2023-03-26T00:02:16.168Z,2.53
2023-03-26T00:04:42.687Z,3.38
2023-03-26T00:07:10.374Z,2.72
2023-03-26T00:09:36.691Z,2.88
2023-03-26T00:12:03.287Z,2.97
2023-03-26T00:14:30.397Z,2.85
2023-03-26T00:16:56.678Z,2.65
2023-03-26T00:19:22.958Z,3.13
2023-03-26T00:21:49.364Z,2.83
2023-03-26T00:24:16.099Z,3.00
2023-03-26T00:26:42.876Z,2.97
2023-03-26T00:29:10.322Z,3.38
2023-03-26T00:31:39.807Z,4.00
2023-03-26T00:34:06.328Z,3.80
2023-03-26T00:36:35.694Z,3.03
2023-03-26T00:39:05.439Z,3.05
2023-03-26T00:41:31.965Z,3.45
2023-03-26T00:43:58.943Z,3.30
2023-03-26T00:46:26.009Z,3.55
2023-03-26T00:48:52.628Z,3.90
2023-03-26T00:51:20.635Z,3.90
2023-03-26T00:53:47.945Z,3.15
2023-03-26T00:56:14.608Z,4.63
2023-03-26T00:58:41.350Z,3.30
2023-03-26T01:01:13.768Z,3.10
2023-03-26T01:03:41.839Z,3.80
2023-03-26T01:06:12.249Z,3.70
2023-03-26T01:08:42.763Z,3.70
2023-03-26T01:11:13.958Z,4.43
2023-03-26T01:13:42.766Z,3.67
2023-03-26T01:16:20.105Z,4.30
2023-03-26T01:18:46.958Z,4.50
2023-03-26T01:21:14.546Z,4.10
2023-03-26T01:23:49.073Z,4.07
2023-03-26T01:26:23.235Z,4.53
2023-03-26T01:28:51.275Z,4.50
2023-03-26T01:31:25.191Z,4.35
2023-03-26T01:33:58.414Z,4.60
2023-03-26T01:36:32.386Z,4.38
2023-03-26T01:39:09.732Z,3.70
2023-03-26T01:41:47.334Z,4.60
2023-03-26T01:44:19.604Z,4.82
2023-03-26T01:46:46.303Z,4.40
2023-03-26T01:49:15.835Z,4.68
2023-03-26T01:51:42.754Z,5.60
2023-03-26T01:54:12.139Z,4.75
2023-03-26T01:56:41.515Z,4.22
2023-03-26T01:59:24.423Z,4.68
2023-03-26T02:01:59.899Z,4.97
2023-03-26T02:04:31.329Z,5.40
2023-03-26T02:07:28.595Z,5.50
2023-03-26T02:09:58.268Z,4.43
2023-03-26T02:12:25.624Z,4.63
2023-03-26T02:14:52.657Z,4.65
2023-03-26T02:17:19.229Z,5.15
2023-03-26T02:19:45.644Z,4.82
2023-03-26T02:22:15.789Z,6.05
2023-03-26T02:24:42.997Z,5.85
2023-03-26T02:27:12.259Z,5.50
2023-03-26T02:29:39.941Z,4.90
2023-03-26T02:32:06.781Z,5.47
2023-03-26T02:34:33.331Z,5.85
2023-03-26T02:36:59.913Z,4.95
2023-03-26T02:39:26.623Z,6.40
2023-03-26T02:41:53.019Z,5.95
2023-03-26T02:44:19.374Z,6.43
2023-03-26T02:46:45.811Z,5.75
2023-03-26T02:49:12.184Z,6.38
2023-03-26T02:51:38.546Z,7.07
2023-03-26T02:54:04.957Z,7.28
2023-03-26T02:56:31.490Z,6.35
2023-03-26T02:58:57.837Z,7.00
2023-03-26T03:01:24.198Z,7.13
2023-03-26T03:03:50.547Z,6.28
2023-03-26T03:06:18.790Z,6.22
2023-03-26T03:08:48.532Z,6.75
2023-03-26T03:11:15.950Z,6.45
2023-03-26T03:13:42.374Z,6.55
2023-03-26T03:16:09.269Z,6.75
2023-03-26T03:18:35.850Z,6.40
2023-03-26T03:21:03.054Z,7.53
2023-03-26T03:23:29.444Z,6.75
2023-03-26T03:25:57.458Z,7.43
2023-03-26T03:28:24.569Z,8.27
2023-03-26T03:30:53.883Z,7.70
2023-03-26T03:33:20.677Z,8.05
2023-03-26T03:35:48.974Z,7.30
2023-03-26T03:38:16.157Z,8.20
2023-03-26T03:40:42.614Z,8.68
2023-03-26T03:43:09.030Z,8.90
2023-03-26T03:45:35.578Z,8.43
2023-03-26T03:48:02.003Z,8.77
2023-03-26T03:50:28.380Z,8.38
2023-03-26T03:52:56.018Z,8.63
2023-03-26T03:55:24.144Z,8.15
2023-03-26T03:57:52.432Z,7.45
2023-03-26T04:00:18.894Z,7.65
2023-03-26T04:02:46.346Z,7.57
2023-03-26T04:05:12.804Z,8.35
2023-03-26T04:07:39.356Z,8.07
2023-03-26T04:10:07.747Z,6.32
2023-03-26T04:12:34.242Z,8.10
2023-03-26T04:15:00.607Z,7.35
2023-03-26T04:17:27.045Z,6.68
2023-03-26T04:19:54.913Z,7.80
2023-03-26T04:22:21.741Z,7.20
2023-03-26T04:24:49.705Z,7.47
2023-03-26T04:27:21.926Z,8.02
2023-03-26T04:29:50.296Z,7.40
2023-03-26T04:32:26.515Z,9.18
2023-03-26T04:34:54.156Z,8.20
2023-03-26T04:37:28.389Z,7.82
2023-03-26T04:39:55.148Z,8.05
2023-03-26T04:42:21.509Z,8.27
2023-03-26T04:44:50.809Z,8.23
2023-03-26T04:47:20.299Z,9.15
2023-03-26T04:49:47.402Z,8.75
2023-03-26T04:52:14.332Z,8.23
2023-03-26T04:54:43.066Z,8.00
2023-03-26T04:57:13.541Z,9.23
2023-03-26T04:59:41.435Z,8.40
2023-03-26T05:02:09.508Z,9.70
2023-03-26T05:04:39.567Z,8.98
2023-03-26T05:07:06.225Z,8.88
2023-03-26T05:09:32.531Z,8.95
2023-03-26T05:11:59.079Z,9.13
2023-03-26T05:14:25.565Z,8.27
2023-03-26T05:16:53.280Z,8.68
2023-03-26T05:19:19.960Z,9.60
2023-03-26T05:21:46.257Z,9.38
2023-03-26T05:24:12.574Z,8.45
2023-03-26T05:26:38.894Z,8.75
2023-03-26T05:29:05.291Z,7.95
2023-03-26T05:31:31.645Z,8.68
2023-03-26T05:34:00.298Z,9.70
2023-03-26T05:36:28.433Z,8.30
2023-03-26T05:38:54.856Z,9.15
2023-03-26T05:41:21.203Z,8.07
2023-03-26T05:43:48.876Z,9.43
2023-03-26T05:46:15.815Z,8.07
2023-03-26T05:48:42.312Z,10.02
2023-03-26T05:51:08.695Z,8.23
2023-03-26T05:53:35.114Z,8.73
2023-03-26T05:56:02.102Z,8.40
2023-03-26T05:58:29.898Z,7.90
2023-03-26T06:00:59.980Z,7.60
2023-03-26T06:03:26.633Z,8.00
2023-03-26T06:05:53.105Z,8.23
2023-03-26T06:08:20.476Z,8.77
2023-03-26T06:10:46.766Z,9.15
2023-03-26T06:13:13.631Z,8.55
2023-03-26T06:15:39.972Z,9.93
2023-03-26T06:18:06.417Z,9.00
2023-03-26T06:20:32.870Z,8.90
2023-03-26T06:22:59.138Z,8.73
2023-03-26T06:25:25.514Z,8.05
2023-03-26T06:27:51.857Z,7.15
2023-03-26T06:30:18.306Z,7.72
2023-03-26T06:32:44.670Z,6.43
2023-03-26T06:35:11.484Z,6.78
2023-03-26T06:37:37.918Z,8.05
2023-03-26T06:40:04.813Z,6.68
2023-03-26T06:43:06.330Z,6.70
2023-03-26T06:45:17.566Z,6.03
2023-03-26T06:47:43.870Z,6.10
2023-03-26T06:50:11.971Z,6.03
2023-03-26T06:52:38.492Z,5.15
2023-03-26T06:55:06.484Z,5.57
2023-03-26T06:57:32.881Z,6.45
2023-03-26T06:59:59.192Z,6.82
2023-03-26T07:02:25.729Z,6.20
2023-03-26T07:04:52.845Z,6.78
2023-03-26T07:07:21.650Z,5.20
2023-03-26T07:09:48.174Z,6.22
2023-03-26T07:12:14.785Z,5.57
2023-03-26T07:14:41.096Z,6.75
2023-03-26T07:17:07.576Z,6.07
2023-03-26T07:19:34.003Z,5.63
2023-03-26T07:22:00.597Z,6.35
2023-03-26T07:24:27.182Z,6.75
2023-03-26T07:27:06.662Z,6.85
2023-03-26T07:29:53.223Z,5.60
2023-03-26T07:32:31.126Z,6.25
2023-03-26T07:35:07.310Z,7.05
2023-03-26T07:37:52.396Z,5.75
2023-03-26T07:40:37.746Z,6.47
2023-03-26T07:43:26.432Z,6.15
2023-03-26T07:45:54.096Z,6.20
2023-03-26T07:48:25.481Z,6.30
2023-03-26T07:50:52.154Z,6.72
2023-03-26T07:53:18.762Z,6.72
2023-03-26T07:56:07.136Z,7.40
2023-03-26T07:58:40.412Z,5.93
2023-03-26T08:01:28.023Z,6.32
2023-03-26T08:04:23.187Z,5.82
2023-03-26T08:06:54.244Z,5.75
2023-03-26T08:09:28.712Z,6.90
2023-03-26T08:11:58.585Z,6.53
2023-03-26T08:14:48.996Z,6.63
2023-03-26T08:17:33.737Z,7.22
2023-03-26T08:20:20.432Z,6.88
2023-03-26T08:22:50.809Z,7.78
2023-03-26T08:25:34.822Z,7.80
2023-03-26T08:28:08.612Z,7.85
2023-03-26T08:30:35.740Z,7.40
2023-03-26T08:33:11.809Z,7.85
2023-03-26T08:35:42.376Z,6.80
2023-03-26T08:41:01.782Z,7.35
2023-03-26T08:43:31.159Z,6.68
2023-03-26T08:46:06.636Z,7.15
2023-03-26T08:48:51.920Z,7.85
2023-03-26T08:51:40.815Z,9.27
2023-03-26T08:54:22.252Z,7.82
2023-03-26T08:56:54.744Z,9.05
2023-03-26T08:59:21.432Z,7.68
2023-03-26T09:01:53.661Z,8.70
2023-03-26T09:04:39.504Z,8.90
2023-03-26T09:07:06.947Z,7.82
2023-03-26T09:09:52.151Z,9.00
2023-03-26T09:12:20.859Z,9.15
2023-03-26T09:15:01.122Z,8.75
2023-03-26T09:17:46.517Z,9.73
2023-03-26T09:20:12.842Z,9.52
2023-03-26T09:22:48.537Z,10.32
2023-03-26T09:25:41.559Z,9.68
2023-03-26T09:28:21.988Z,11.38
2023-03-26T09:31:00.908Z,13.43
2023-03-26T09:33:33.244Z,13.82
2023-03-26T09:36:18.399Z,13.77
2023-03-26T09:38:44.728Z,12.48
2023-03-26T09:41:15.539Z,13.43
2023-03-26T09:46:25.456Z,12.27
2023-03-26T09:49:08.130Z,12.18
2023-03-26T09:51:59.063Z,13.27
2023-03-26T09:54:28.106Z,13.48
2023-03-26T09:57:08.489Z,12.02
2023-03-26T10:00:01.607Z,11.90
2023-03-26T10:02:45.972Z,12.50
2023-03-26T10:05:26.398Z,11.85
2023-03-26T10:07:57.151Z,11.93
2023-03-26T10:10:30.342Z,11.75
2023-03-26T10:13:13.878Z,11.77
2023-03-26T10:16:08.095Z,12.57
2023-03-26T10:18:48.853Z,10.65
2023-03-26T10:21:33.706Z,11.63
2023-03-26T10:24:00.355Z,11.45
2023-03-26T10:27:08.418Z,11.27
2023-03-26T10:29:43.994Z,10.40
2023-03-26T10:32:22.664Z,10.10
2023-03-26T10:35:08.201Z,9.13
2023-03-26T10:37:34.576Z,7.88
2023-03-26T10:40:19.121Z,8.02
2023-03-26T10:43:04.384Z,8.05
2023-03-26T10:45:45.137Z,7.15
2023-03-26T10:48:11.424Z,6.70
2023-03-26T10:50:46.766Z,7.20
2023-03-26T10:53:28.487Z,7.05
2023-03-26T10:55:56.515Z,6.93
2023-03-26T10:58:29.153Z,6.50
2023-03-26T11:01:22.382Z,6.97
2023-03-26T11:03:55.653Z,5.55
2023-03-26T11:06:23.681Z,6.95
2023-03-26T11:08:56.702Z,6.20
2023-03-26T11:11:36.755Z,5.88
2023-03-26T11:14:18.982Z,6.13
2023-03-26T11:17:00.906Z,5.32
2023-03-26T11:19:30.326Z,5.68
2023-03-26T11:21:56.568Z,5.40
2023-03-26T11:24:29.086Z,5.60
2023-03-26T11:26:58.298Z,6.10
2023-03-26T11:29:46.233Z,4.93
2023-03-26T11:32:14.017Z,4.57
2023-03-26T11:34:47.967Z,4.97
2023-03-26T11:37:18.682Z,4.95
2023-03-26T11:39:50.996Z,4.35
2023-03-26T11:42:19.229Z,5.00
2023-03-26T11:45:02.965Z,4.70
2023-03-26T11:47:35.836Z,3.72
2023-03-26T11:50:03.655Z,4.78
2023-03-26T11:52:30.054Z,4.13
2023-03-26T11:54:58.532Z,3.95
2023-03-26T11:57:30.903Z,4.57
2023-03-26T11:59:59.944Z,4.15
2023-03-26T12:02:34.149Z,4.50
2023-03-26T12:05:26.462Z,4.35
2023-03-26T12:07:54.458Z,4.57
2023-03-26T12:10:39.465Z,4.57
2023-03-26T12:13:24.241Z,3.95
2023-03-26T12:15:50.944Z,4.43
2023-03-26T12:18:24.753Z,4.68
2023-03-26T12:21:02.037Z,3.88
2023-03-26T12:23:47.085Z,4.15
2023-03-26T12:26:18.422Z,3.97
2023-03-26T12:28:46.479Z,4.05
2023-03-26T12:31:18.063Z,4.25
2023-03-26T12:34:02.858Z,4.10
2023-03-26T12:36:31.150Z,4.95
2023-03-26T12:39:16.372Z,4.20
2023-03-26T12:44:43.006Z,4.03
2023-03-26T12:44:54.604Z,4.22
2023-03-26T12:47:58.246Z,3.88
2023-03-26T12:50:34.275Z,3.70
2023-03-26T12:53:24.082Z,3.50
2023-03-26T12:55:51.203Z,3.10
2023-03-26T12:58:26.271Z,2.63
2023-03-26T13:01:02.584Z,2.80
2023-03-26T13:03:38.001Z,2.80
2023-03-26T13:06:09.926Z,2.63
2023-03-26T13:08:46.611Z,2.58
2023-03-26T13:11:38.856Z,2.20
2023-03-26T13:14:21.432Z,2.67
2023-03-26T13:16:47.850Z,2.40
2023-03-26T13:19:17.631Z,2.50
2023-03-26T13:21:59.494Z,2.85
2023-03-26T13:24:44.232Z,2.78
2023-03-26T13:27:16.823Z,2.50
2023-03-26T13:29:56.262Z,2.05
2023-03-26T13:32:36.143Z,1.98
2023-03-26T13:35:29.857Z,2.92
2023-03-26T13:38:15.340Z,2.25
2023-03-26T13:40:44.732Z,2.28
2023-03-26T13:43:23.321Z,1.90
2023-03-26T13:45:54.302Z,2.40
2023-03-26T13:48:27.037Z,2.80
2023-03-26T13:50:59.311Z,2.85
2023-03-26T13:53:28.818Z,1.98
2023-03-26T13:55:59.053Z,2.13
2023-03-26T13:58:34.809Z,2.17
2023-03-26T14:01:09.470Z,2.70
2023-03-26T14:03:35.942Z,1.80
2023-03-26T14:06:06.465Z,1.90
2023-03-26T14:08:42.366Z,1.90
2023-03-26T14:11:11.661Z,1.90
2023-03-26T14:13:56.502Z,2.25
2023-03-26T14:16:28.491Z,2.15
2023-03-26T14:19:00.966Z,2.13
2023-03-26T14:21:42.801Z,1.90
2023-03-26T14:24:28.076Z,2.10
2023-03-26T14:26:54.537Z,2.00
2023-03-26T14:29:31.452Z,2.17
2023-03-26T14:32:09.932Z,1.90
2023-03-26T14:34:42.789Z,1.77
2023-03-26T14:37:28.218Z,1.65
2023-03-26T14:40:14.823Z,1.38
2023-03-26T14:42:43.669Z,2.40
2023-03-26T14:45:28.651Z,1.88
2023-03-26T14:47:58.215Z,1.75
2023-03-26T14:50:46.660Z,1.98
2023-03-26T14:53:26.045Z,1.65
2023-03-26T14:56:04.250Z,1.45
2023-03-26T14:58:42.750Z,1.83
2023-03-26T15:01:18.563Z,1.90
2023-03-26T15:03:53.915Z,1.60
2023-03-26T15:06:23.352Z,1.95
2023-03-26T15:09:13.907Z,1.70
2023-03-26T15:11:46.069Z,2.25
2023-03-26T15:14:30.898Z,1.80
2023-03-26T15:16:57.231Z,1.83
2023-03-26T15:19:29.557Z,1.73
2023-03-26T15:22:14.836Z,2.65
2023-03-26T15:25:08.372Z,2.30
2023-03-26T15:27:54.098Z,1.95
2023-03-26T15:30:35.062Z,1.55
2023-03-26T15:35:35.612Z,1.48
2023-03-26T15:38:20.899Z,1.58
2023-03-26T15:40:59.667Z,1.85
2023-03-26T15:43:28.114Z,1.98
2023-03-26T15:45:57.388Z,1.88
2023-03-26T15:48:30.656Z,1.90
2023-03-26T15:51:12.452Z,2.00
2023-03-26T15:53:58.197Z,2.13
2023-03-26T15:56:55.942Z,1.63
2023-03-26T15:59:40.953Z,1.88
2023-03-26T16:02:07.434Z,2.67
2023-03-26T16:04:41.586Z,1.88
2023-03-26T16:07:29.470Z,2.10
2023-03-26T16:10:16.012Z,1.80
2023-03-26T16:13:14.564Z,1.70
2023-03-26T16:15:41.290Z,1.90
2023-03-26T16:18:11.934Z,3.03
2023-03-26T16:20:46.675Z,2.28
2023-03-26T16:23:31.853Z,1.90
2023-03-26T16:26:00.407Z,1.73
2023-03-26T16:28:52.931Z,2.60
2023-03-26T16:31:36.982Z,2.13
2023-03-26T16:34:05.158Z,2.38
2023-03-26T16:36:37.531Z,2.80
2023-03-26T16:39:04.733Z,2.00
2023-03-26T16:41:32.589Z,2.13
2023-03-26T16:44:17.610Z,1.92
2023-03-26T16:47:00.434Z,1.92
2023-03-26T16:49:29.606Z,1.63
2023-03-26T16:52:02.811Z,2.05
2023-03-26T16:54:36.140Z,1.60
2023-03-26T16:57:22.989Z,1.70
2023-03-26T17:00:05.382Z,1.85
2023-03-26T17:02:38.583Z,2.00
2023-03-26T17:05:23.920Z,1.60
2023-03-26T17:08:02.776Z,1.40
2023-03-26T17:10:33.856Z,1.15
2023-03-26T17:13:23.368Z,1.40
2023-03-26T17:16:02.600Z,1.73
2023-03-26T17:19:07.932Z,1.85
2023-03-26T17:21:47.034Z,1.30
2023-03-26T17:24:26.227Z,2.33
2023-03-26T17:27:01.412Z,1.42
2023-03-26T17:29:31.516Z,2.35
2023-03-26T17:32:00.720Z,1.65
2023-03-26T17:34:40.130Z,1.75
2023-03-26T17:37:22.045Z,1.38
2023-03-26T17:39:51.501Z,1.60
2023-03-26T17:42:19.358Z,1.55
2023-03-26T17:44:55.670Z,1.92
2023-03-26T17:47:28.217Z,1.92
2023-03-26T17:50:15.000Z,1.40
2023-03-26T17:52:48.181Z,1.70
2023-03-26T17:55:19.666Z,1.17
2023-03-26T17:57:49.993Z,1.35
2023-03-26T18:00:18.450Z,1.58
2023-03-26T18:02:47.722Z,1.70
2023-03-26T18:05:16.206Z,1.30
2023-03-26T18:08:06.075Z,1.05
2023-03-26T18:10:40.459Z,1.45
2023-03-26T18:13:15.188Z,1.20
2023-03-26T18:15:48.272Z,1.58
2023-03-26T18:18:19.799Z,1.40
2023-03-26T18:20:47.856Z,1.40
2023-03-26T18:23:22.182Z,1.63
2023-03-26T18:26:17.849Z,1.98
2023-03-26T18:28:45.854Z,2.03
2023-03-26T18:31:18.664Z,2.33
2023-03-26T18:33:46.879Z,1.58
2023-03-26T18:36:14.205Z,1.20
2023-03-26T18:38:42.808Z,2.13
2023-03-26T18:41:15.509Z,1.85
2023-03-26T18:43:43.990Z,2.33
2023-03-26T18:46:12.246Z,1.38
2023-03-26T18:48:38.868Z,1.48
2023-03-26T18:51:06.091Z,1.90
2023-03-26T18:53:37.863Z,1.45
2023-03-26T18:56:17.677Z,1.30
2023-03-26T18:58:49.951Z,1.50
2023-03-26T19:01:25.420Z,1.80
2023-03-26T19:03:53.706Z,1.55
2023-03-26T19:06:20.905Z,1.58
2023-03-26T19:08:47.904Z,1.70
2023-03-26T19:11:16.237Z,1.85
2023-03-26T19:13:42.648Z,1.73
2023-03-26T19:16:14.539Z,1.65
2023-03-26T19:18:44.197Z,2.05
2023-03-26T19:21:10.668Z,1.50
2023-03-26T19:23:38.832Z,1.77
2023-03-26T19:26:06.441Z,2.00
2023-03-26T19:28:35.249Z,2.10
2023-03-26T19:31:09.432Z,1.60
2023-03-26T19:33:37.868Z,1.67
2023-03-26T19:36:05.994Z,1.13
2023-03-26T19:38:43.005Z,1.60
2023-03-26T19:41:27.921Z,1.30
2023-03-26T19:43:55.869Z,1.75
2023-03-26T19:46:23.253Z,1.80
2023-03-26T19:48:51.847Z,1.67
2023-03-26T19:51:22.704Z,1.17
2023-03-26T19:53:53.749Z,1.73
2023-03-26T19:56:21.319Z,1.33
2023-03-26T19:58:48.635Z,2.33
2023-03-26T20:01:19.895Z,1.55
2023-03-26T20:03:47.886Z,1.30
2023-03-26T20:06:19.452Z,1.30
2023-03-26T20:08:47.181Z,1.55
2023-03-26T20:11:19.361Z,1.75
2023-03-26T20:13:46.319Z,1.20
2023-03-26T20:16:18.265Z,1.38
2023-03-26T20:18:44.653Z,1.40
2023-03-26T20:21:12.265Z,1.00
2023-03-26T20:23:39.258Z,1.25
2023-03-26T20:26:05.678Z,1.60
2023-03-26T20:28:35.425Z,1.33
2023-03-26T20:31:12.322Z,1.35
2023-03-26T20:33:39.785Z,1.45
2023-03-26T20:36:10.191Z,1.30
2023-03-26T20:38:39.603Z,1.52
2023-03-26T20:41:12.371Z,1.95
2023-03-26T20:43:38.711Z,1.27
2023-03-26T20:46:05.274Z,1.75
2023-03-26T20:48:31.654Z,1.20
2023-03-26T20:50:58.018Z,1.23
2023-03-26T20:53:24.354Z,1.50
2023-03-26T20:55:51.624Z,1.42
2023-03-26T20:58:32.018Z,1.90
2023-03-26T21:01:02.494Z,1.95
2023-03-26T21:03:29.016Z,1.23
2023-03-26T21:05:58.985Z,1.40
2023-03-26T21:08:30.137Z,1.53
2023-03-26T21:10:58.738Z,1.70
2023-03-26T21:13:39.352Z,1.23
2023-03-26T21:16:06.501Z,1.35
2023-03-26T21:18:33.107Z,1.75
2023-03-26T21:21:14.123Z,1.30
2023-03-26T21:23:56.696Z,1.50
2023-03-26T21:26:35.821Z,1.25
2023-03-26T21:29:08.563Z,1.02
2023-03-26T21:31:37.696Z,1.27
2023-03-26T21:34:05.662Z,1.38
2023-03-26T21:36:32.364Z,1.35
2023-03-26T21:38:58.942Z,1.25
2023-03-26T21:41:45.764Z,1.73
2023-03-26T21:44:14.192Z,1.83
2023-03-26T21:46:41.226Z,1.92
2023-03-26T21:49:07.705Z,1.92
2023-03-26T21:51:34.209Z,2.15
2023-03-26T21:54:00.534Z,1.60
2023-03-26T21:56:45.584Z,2.17
2023-03-26T21:59:26.488Z,2.50
2023-03-26T22:02:01.689Z,2.80
2023-03-26T22:04:49.043Z,1.67
2023-03-26T22:07:32.562Z,1.80
2023-03-26T22:09:59.146Z,1.33
2023-03-26T22:12:25.656Z,1.27
2023-03-26T22:14:52.496Z,1.35
2023-03-26T22:17:19.246Z,2.00
2023-03-26T22:19:45.540Z,1.40
2023-03-26T22:22:12.524Z,1.58
2023-03-26T22:24:38.995Z,1.40
2023-03-26T22:27:05.547Z,1.10
2023-03-26T22:29:32.383Z,1.38
2023-03-26T22:31:58.674Z,1.02
2023-03-26T22:34:25.004Z,1.00
2023-03-26T22:36:52.529Z,1.70
2023-03-26T22:39:18.856Z,1.50
2023-03-26T22:41:45.167Z,1.58
2023-03-26T22:44:19.772Z,1.20
2023-03-26T22:46:49.291Z,1.20
2023-03-26T22:49:16.232Z,1.55
2023-03-26T22:51:42.560Z,1.33
2023-03-26T22:54:09.559Z,1.25
2023-03-26T22:56:36.998Z,1.60
2023-03-26T22:59:03.835Z,1.00
2023-03-26T23:01:30.581Z,1.10
2023-03-26T23:03:57.880Z,1.40
2023-03-26T23:06:24.273Z,1.23
2023-03-26T23:08:51.257Z,1.35
2023-03-26T23:11:18.685Z,1.20
2023-03-26T23:13:46.083Z,1.23
2023-03-26T23:16:13.042Z,1.27
2023-03-26T23:18:39.478Z,1.92
2023-03-26T23:21:12.179Z,1.23
2023-03-26T23:23:39.656Z,1.50
2023-03-26T23:26:06.793Z,1.42
2023-03-26T23:28:33.743Z,1.25
2023-03-26T23:31:01.005Z,1.27
2023-03-26T23:33:30.300Z,1.52
2023-03-26T23:35:57.658Z,1.38
2023-03-26T23:38:24.921Z,1.10
2023-03-26T23:40:57.484Z,1.42
2023-03-26T23:43:24.339Z,1.33
2023-03-26T23:45:50.800Z,1.00
2023-03-26T23:48:22.335Z,1.20
2023-03-26T23:50:52.621Z,1.23
2023-03-26T23:55:57.920Z,1.20
2023-03-26T23:58:26.455Z,1.08
